sensor_id;sensor_type;location;lat;lon;timestamp;pressure;altitude;pressure_sealevel;temperature;humidity
13661;BME280;6903;49.480;11.102;2023-04-21T00:00:06;97567.47;;;8.76;100.00
13661;BME280;6903;49.480;11.102;2023-04-21T00:02:33;97566.75;;;8.74;100.00
13661;BME280;6903;49.480;11.102;2023-04-21T00:05:04;97552.88;;;8.72;100.00
13661;BME280;6903;49.480;11.102;2023-04-21T00:07:29;97562.81;;;8.68;100.00
13661;BME280;6903;49.480;11.102;2023-04-21T00:09:55;97565.66;;;8.65;100.00
13661;BME280;6903;49.480;11.102;2023-04-21T00:12:20;97564.97;;;8.63;100.00
13661;BME280;6903;49.480;11.102;2023-04-21T00:14:45;97559.97;;;8.60;100.00
13661;BME280;6903;49.480;11.102;2023-04-21T00:17:11;97561.38;;;8.53;100.00
13661;BME280;6903;49.480;11.102;2023-04-21T00:19:36;97556.94;;;8.42;100.00
13661;BME280;6903;49.480;11.102;2023-04-21T00:22:01;97552.03;;;8.38;100.00
13661;BME280;6903;49.480;11.102;2023-04-21T00:24:28;97541.16;;;8.31;100.00
13661;BME280;6903;49.480;11.102;2023-04-21T00:26:53;97546.06;;;8.25;100.00
13661;BME280;6903;49.480;11.102;2023-04-21T00:29:19;97545.53;;;8.20;100.00
13661;BME280;6903;49.480;11.102;2023-04-21T00:31:44;97538.84;;;8.16;100.00
13661;BME280;6903;49.480;11.102;2023-04-21T00:34:09;97539.09;;;8.13;100.00
13661;BME280;6903;49.480;11.102;2023-04-21T00:36:34;97535.63;;;8.12;100.00
13661;BME280;6903;49.480;11.102;2023-04-21T00:39:00;97539.44;;;8.08;100.00
13661;BME280;6903;49.480;11.102;2023-04-21T00:41:27;97533.09;;;8.00;100.00
13661;BME280;6903;49.480;11.102;2023-04-21T00:44:03;97527.34;;;7.95;100.00
13661;BME280;6903;49.480;11.102;2023-04-21T00:46:28;97521.00;;;7.86;100.00
13661;BME280;6903;49.480;11.102;2023-04-21T00:48:54;97516.97;;;7.82;100.00
13661;BME280;6903;49.480;11.102;2023-04-21T00:51:20;97523.25;;;7.80;100.00
13661;BME280;6903;49.480;11.102;2023-04-21T00:53:45;97521.72;;;7.77;100.00
13661;BME280;6903;49.480;11.102;2023-04-21T00:56:11;97519.44;;;7.73;100.00
13661;BME280;6903;49.480;11.102;2023-04-21T00:58:40;97521.34;;;7.71;100.00
13661;BME280;6903;49.480;11.102;2023-04-21T01:01:06;97514.63;;;7.67;100.00
13661;BME280;6903;49.480;11.102;2023-04-21T01:03:31;97518.31;;;7.64;100.00
13661;BME280;6903;49.480;11.102;2023-04-21T01:05:56;97522.72;;;7.64;100.00
13661;BME280;6903;49.480;11.102;2023-04-21T01:08:22;97522.97;;;7.61;100.00
13661;BME280;6903;49.480;11.102;2023-04-21T01:10:47;97526.78;;;7.57;100.00
13661;BME280;6903;49.480;11.102;2023-04-21T01:13:12;97526.16;;;7.53;100.00
13661;BME280;6903;49.480;11.102;2023-04-21T01:15:38;97522.31;;;7.46;100.00
13661;BME280;6903;49.480;11.102;2023-04-21T01:18:03;97520.41;;;7.48;100.00
13661;BME280;6903;49.480;11.102;2023-04-21T01:20:29;97527.94;;;7.53;100.00
13661;BME280;6903;49.480;11.102;2023-04-21T01:22:54;97531.41;;;7.53;100.00
13661;BME280;6903;49.480;11.102;2023-04-21T01:25:19;97532.13;;;7.55;100.00
13661;BME280;6903;49.480;11.102;2023-04-21T01:27:50;97530.81;;;7.61;100.00
13661;BME280;6903;49.480;11.102;2023-04-21T01:30:16;97533.22;;;7.64;100.00
13661;BME280;6903;49.480;11.102;2023-04-21T01:32:42;97530.59;;;7.64;100.00
13661;BME280;6903;49.480;11.102;2023-04-21T01:35:07;97538.25;;;7.67;100.00
13661;BME280;6903;49.480;11.102;2023-04-21T01:37:33;97538.03;;;7.70;100.00
13661;BME280;6903;49.480;11.102;2023-04-21T01:40:01;97542.09;;;7.74;100.00
13661;BME280;6903;49.480;11.102;2023-04-21T01:42:29;97536.72;;;7.75;100.00
13661;BME280;6903;49.480;11.102;2023-04-21T01:44:55;97540.09;;;7.77;100.00
13661;BME280;6903;49.480;11.102;2023-04-21T01:47:21;97543.56;;;7.78;100.00
13661;BME280;6903;49.480;11.102;2023-04-21T01:49:47;97543.78;;;7.75;100.00
13661;BME280;6903;49.480;11.102;2023-04-21T01:52:12;97539.69;;;7.71;100.00
13661;BME280;6903;49.480;11.102;2023-04-21T01:54:38;97542.91;;;7.63;100.00
13661;BME280;6903;49.480;11.102;2023-04-21T01:57:03;97545.25;;;7.55;100.00
13661;BME280;6903;49.480;11.102;2023-04-21T01:59:28;97542.47;;;7.46;100.00
13661;BME280;6903;49.480;11.102;2023-04-21T02:01:54;97543.75;;;7.40;100.00
13661;BME280;6903;49.480;11.102;2023-04-21T02:04:19;97551.13;;;7.35;100.00
13661;BME280;6903;49.480;11.102;2023-04-21T02:06:44;97553.13;;;7.32;100.00
13661;BME280;6903;49.480;11.102;2023-04-21T02:09:10;97555.78;;;7.19;100.00
13661;BME280;6903;49.480;11.102;2023-04-21T02:11:35;97543.06;;;7.02;100.00
13661;BME280;6903;49.480;11.102;2023-04-21T02:14:00;97548.03;;;6.94;100.00
13661;BME280;6903;49.480;11.102;2023-04-21T02:16:26;97546.16;;;6.83;100.00
13661;BME280;6903;49.480;11.102;2023-04-21T02:18:54;97544.94;;;6.76;100.00
13661;BME280;6903;49.480;11.102;2023-04-21T02:21:24;97542.72;;;6.70;100.00
13661;BME280;6903;49.480;11.102;2023-04-21T02:23:49;97543.16;;;6.64;100.00
13661;BME280;6903;49.480;11.102;2023-04-21T02:26:15;97545.06;;;6.62;100.00
13661;BME280;6903;49.480;11.102;2023-04-21T02:28:40;97541.81;;;6.59;100.00
13661;BME280;6903;49.480;11.102;2023-04-21T02:31:06;97535.13;;;6.55;100.00
13661;BME280;6903;49.480;11.102;2023-04-21T02:33:31;97538.59;;;6.55;100.00
13661;BME280;6903;49.480;11.102;2023-04-21T02:35:56;97539.84;;;6.50;100.00
13661;BME280;6903;49.480;11.102;2023-04-21T02:38:22;97535.56;;;6.49;100.00
13661;BME280;6903;49.480;11.102;2023-04-21T02:40:47;97530.44;;;6.47;100.00
13661;BME280;6903;49.480;11.102;2023-04-21T02:43:14;97525.19;;;6.47;100.00
13661;BME280;6903;49.480;11.102;2023-04-21T02:45:39;97532.09;;;6.48;100.00
13661;BME280;6903;49.480;11.102;2023-04-21T02:48:05;97527.59;;;6.50;100.00
13661;BME280;6903;49.480;11.102;2023-04-21T02:50:30;97529.38;;;6.50;100.00
13661;BME280;6903;49.480;11.102;2023-04-21T02:52:56;97533.75;;;6.49;100.00
13661;BME280;6903;49.480;11.102;2023-04-21T02:55:21;97524.22;;;6.48;100.00
13661;BME280;6903;49.480;11.102;2023-04-21T02:57:47;97529.69;;;6.45;100.00
13661;BME280;6903;49.480;11.102;2023-04-21T03:00:12;97534.28;;;6.42;100.00
13661;BME280;6903;49.480;11.102;2023-04-21T03:02:38;97530.94;;;6.40;100.00
13661;BME280;6903;49.480;11.102;2023-04-21T03:05:03;97536.38;;;6.37;100.00
13661;BME280;6903;49.480;11.102;2023-04-21T03:07:29;97531.59;;;6.31;100.00
13661;BME280;6903;49.480;11.102;2023-04-21T03:09:54;97520.81;;;6.23;100.00
13661;BME280;6903;49.480;11.102;2023-04-21T03:12:19;97526.59;;;6.15;100.00
13661;BME280;6903;49.480;11.102;2023-04-21T03:14:45;97524.34;;;6.09;100.00
13661;BME280;6903;49.480;11.102;2023-04-21T03:17:10;97539.25;;;6.09;100.00
13661;BME280;6903;49.480;11.102;2023-04-21T03:19:35;97528.88;;;6.07;100.00
13661;BME280;6903;49.480;11.102;2023-04-21T03:22:01;97522.16;;;6.03;100.00
13661;BME280;6903;49.480;11.102;2023-04-21T03:24:26;97523.50;;;5.96;100.00
13661;BME280;6903;49.480;11.102;2023-04-21T03:26:51;97533.97;;;5.96;100.00
13661;BME280;6903;49.480;11.102;2023-04-21T03:29:17;97538.50;;;5.94;100.00
13661;BME280;6903;49.480;11.102;2023-04-21T03:31:42;97531.56;;;5.93;100.00
13661;BME280;6903;49.480;11.102;2023-04-21T03:34:08;97532.63;;;5.91;100.00
13661;BME280;6903;49.480;11.102;2023-04-21T03:36:33;97537.75;;;5.92;100.00
13661;BME280;6903;49.480;11.102;2023-04-21T03:38:58;97538.59;;;5.93;100.00
13661;BME280;6903;49.480;11.102;2023-04-21T03:41:24;97548.00;;;5.95;100.00
13661;BME280;6903;49.480;11.102;2023-04-21T03:43:49;97534.50;;;6.01;100.00
13661;BME280;6903;49.480;11.102;2023-04-21T03:46:19;97541.66;;;6.12;100.00
13661;BME280;6903;49.480;11.102;2023-04-21T03:48:46;97540.91;;;6.22;100.00
13661;BME280;6903;49.480;11.102;2023-04-21T03:51:11;97539.34;;;6.32;100.00
13661;BME280;6903;49.480;11.102;2023-04-21T03:53:37;97547.50;;;6.40;100.00
13661;BME280;6903;49.480;11.102;2023-04-21T03:56:02;97547.91;;;6.47;100.00
13661;BME280;6903;49.480;11.102;2023-04-21T03:58:27;97549.34;;;6.51;100.00
13661;BME280;6903;49.480;11.102;2023-04-21T04:00:53;97542.88;;;6.56;100.00
13661;BME280;6903;49.480;11.102;2023-04-21T04:03:18;97541.09;;;6.57;100.00
13661;BME280;6903;49.480;11.102;2023-04-21T04:05:43;97544.13;;;6.63;100.00
13661;BME280;6903;49.480;11.102;2023-04-21T04:08:09;97539.59;;;6.65;100.00
13661;BME280;6903;49.480;11.102;2023-04-21T04:10:34;97539.47;;;6.67;100.00
13661;BME280;6903;49.480;11.102;2023-04-21T04:13:00;97542.63;;;6.72;100.00
13661;BME280;6903;49.480;11.102;2023-04-21T04:15:25;97544.63;;;6.68;100.00
13661;BME280;6903;49.480;11.102;2023-04-21T04:17:51;97539.09;;;6.60;100.00
13661;BME280;6903;49.480;11.102;2023-04-21T04:20:16;97546.22;;;6.58;100.00
13661;BME280;6903;49.480;11.102;2023-04-21T04:22:41;97540.03;;;6.59;100.00
13661;BME280;6903;49.480;11.102;2023-04-21T04:25:07;97539.81;;;6.62;100.00
13661;BME280;6903;49.480;11.102;2023-04-21T04:27:33;97541.19;;;6.68;100.00
13661;BME280;6903;49.480;11.102;2023-04-21T04:29:58;97540.31;;;6.67;100.00
13661;BME280;6903;49.480;11.102;2023-04-21T04:32:24;97539.69;;;6.64;100.00
13661;BME280;6903;49.480;11.102;2023-04-21T04:34:52;97548.72;;;6.60;100.00
13661;BME280;6903;49.480;11.102;2023-04-21T04:37:20;97551.34;;;6.60;100.00
13661;BME280;6903;49.480;11.102;2023-04-21T04:39:46;97542.22;;;6.65;100.00
13661;BME280;6903;49.480;11.102;2023-04-21T04:42:11;97548.91;;;6.69;100.00
13661;BME280;6903;49.480;11.102;2023-04-21T04:44:36;97550.28;;;6.75;100.00
13661;BME280;6903;49.480;11.102;2023-04-21T04:47:02;97538.84;;;6.76;100.00
13661;BME280;6903;49.480;11.102;2023-04-21T04:49:28;97544.72;;;6.79;100.00
13661;BME280;6903;49.480;11.102;2023-04-21T04:51:53;97543.06;;;6.66;100.00
13661;BME280;6903;49.480;11.102;2023-04-21T04:54:19;97549.06;;;6.55;100.00
13661;BME280;6903;49.480;11.102;2023-04-21T04:56:44;97548.53;;;6.50;100.00
13661;BME280;6903;49.480;11.102;2023-04-21T04:59:10;97542.69;;;6.47;100.00
13661;BME280;6903;49.480;11.102;2023-04-21T05:01:36;97545.91;;;6.50;100.00
13661;BME280;6903;49.480;11.102;2023-04-21T05:04:02;97541.19;;;6.55;100.00
13661;BME280;6903;49.480;11.102;2023-04-21T05:06:27;97554.38;;;6.66;100.00
13661;BME280;6903;49.480;11.102;2023-04-21T05:08:53;97551.84;;;6.77;100.00
13661;BME280;6903;49.480;11.102;2023-04-21T05:11:18;97554.66;;;6.87;100.00
13661;BME280;6903;49.480;11.102;2023-04-21T05:13:44;97559.50;;;7.04;100.00
13661;BME280;6903;49.480;11.102;2023-04-21T05:16:09;97555.34;;;7.25;100.00
13661;BME280;6903;49.480;11.102;2023-04-21T05:18:35;97558.91;;;7.48;100.00
13661;BME280;6903;49.480;11.102;2023-04-21T05:21:01;97561.78;;;7.68;100.00
13661;BME280;6903;49.480;11.102;2023-04-21T05:23:26;97567.44;;;7.86;100.00
13661;BME280;6903;49.480;11.102;2023-04-21T05:25:51;97567.97;;;8.02;100.00
13661;BME280;6903;49.480;11.102;2023-04-21T05:28:17;97561.88;;;8.12;100.00
13661;BME280;6903;49.480;11.102;2023-04-21T05:30:42;97560.41;;;8.32;100.00
13661;BME280;6903;49.480;11.102;2023-04-21T05:33:07;97564.13;;;8.51;100.00
13661;BME280;6903;49.480;11.102;2023-04-21T05:35:33;97566.38;;;8.78;100.00
13661;BME280;6903;49.480;11.102;2023-04-21T05:37:59;97558.84;;;8.96;100.00
13661;BME280;6903;49.480;11.102;2023-04-21T05:40:24;97557.63;;;9.11;100.00
13661;BME280;6903;49.480;11.102;2023-04-21T05:42:49;97547.91;;;9.33;100.00
13661;BME280;6903;49.480;11.102;2023-04-21T05:45:15;97550.09;;;9.49;100.00
13661;BME280;6903;49.480;11.102;2023-04-21T05:47:40;97550.84;;;9.71;100.00
13661;BME280;6903;49.480;11.102;2023-04-21T05:50:06;97545.97;;;9.98;100.00
13661;BME280;6903;49.480;11.102;2023-04-21T05:52:31;97538.72;;;10.32;100.00
13661;BME280;6903;49.480;11.102;2023-04-21T05:54:57;97545.31;;;10.77;100.00
13661;BME280;6903;49.480;11.102;2023-04-21T05:57:23;97541.53;;;11.19;100.00
13661;BME280;6903;49.480;11.102;2023-04-21T05:59:49;97538.31;;;11.65;100.00
13661;BME280;6903;49.480;11.102;2023-04-21T06:02:14;97548.72;;;12.24;100.00
13661;BME280;6903;49.480;11.102;2023-04-21T06:04:40;97544.31;;;12.61;100.00
13661;BME280;6903;49.480;11.102;2023-04-21T06:07:08;97542.09;;;12.93;100.00
13661;BME280;6903;49.480;11.102;2023-04-21T06:09:35;97537.59;;;13.03;100.00
13661;BME280;6903;49.480;11.102;2023-04-21T06:12:03;97539.19;;;12.87;100.00
13661;BME280;6903;49.480;11.102;2023-04-21T06:14:29;97547.91;;;12.60;100.00
13661;BME280;6903;49.480;11.102;2023-04-21T06:16:54;97552.41;;;12.40;100.00
13661;BME280;6903;49.480;11.102;2023-04-21T06:19:19;97548.97;;;12.11;100.00
13661;BME280;6903;49.480;11.102;2023-04-21T06:21:45;97555.81;;;12.14;100.00
13661;BME280;6903;49.480;11.102;2023-04-21T06:24:10;97560.53;;;12.10;100.00
13661;BME280;6903;49.480;11.102;2023-04-21T06:26:35;97545.97;;;11.97;100.00
13661;BME280;6903;49.480;11.102;2023-04-21T06:29:01;97544.13;;;11.97;100.00
13661;BME280;6903;49.480;11.102;2023-04-21T06:31:26;97550.28;;;11.88;100.00
13661;BME280;6903;49.480;11.102;2023-04-21T06:33:52;97539.00;;;11.86;100.00
13661;BME280;6903;49.480;11.102;2023-04-21T06:36:17;97545.56;;;11.92;100.00
13661;BME280;6903;49.480;11.102;2023-04-21T06:38:42;97549.13;;;12.00;100.00
13661;BME280;6903;49.480;11.102;2023-04-21T06:41:10;97542.16;;;12.18;100.00
13661;BME280;6903;49.480;11.102;2023-04-21T06:43:36;97528.69;;;12.12;100.00
13661;BME280;6903;49.480;11.102;2023-04-21T06:46:01;97533.41;;;12.08;100.00
13661;BME280;6903;49.480;11.102;2023-04-21T06:48:27;97536.03;;;12.18;100.00
13661;BME280;6903;49.480;11.102;2023-04-21T06:50:53;97530.75;;;12.27;100.00
13661;BME280;6903;49.480;11.102;2023-04-21T06:53:19;97539.34;;;12.29;100.00
13661;BME280;6903;49.480;11.102;2023-04-21T06:55:45;97545.38;;;12.68;100.00
13661;BME280;6903;49.480;11.102;2023-04-21T06:58:11;97538.72;;;13.01;100.00
13661;BME280;6903;49.480;11.102;2023-04-21T07:00:36;97527.53;;;13.34;100.00
13661;BME280;6903;49.480;11.102;2023-04-21T07:03:02;97541.31;;;13.37;100.00
13661;BME280;6903;49.480;11.102;2023-04-21T07:05:27;97537.94;;;13.45;100.00
13661;BME280;6903;49.480;11.102;2023-04-21T07:07:52;97540.97;;;13.50;100.00
13661;BME280;6903;49.480;11.102;2023-04-21T07:10:23;97545.09;;;13.35;100.00
13661;BME280;6903;49.480;11.102;2023-04-21T07:12:49;97548.00;;;13.14;100.00
13661;BME280;6903;49.480;11.102;2023-04-21T07:15:14;97549.31;;;13.28;100.00
13661;BME280;6903;49.480;11.102;2023-04-21T07:17:40;97541.47;;;13.36;100.00
13661;BME280;6903;49.480;11.102;2023-04-21T07:20:05;97543.63;;;13.50;100.00
13661;BME280;6903;49.480;11.102;2023-04-21T07:22:31;97547.09;;;13.68;100.00
13661;BME280;6903;49.480;11.102;2023-04-21T07:24:56;97552.09;;;14.06;100.00
13661;BME280;6903;49.480;11.102;2023-04-21T07:27:21;97547.09;;;14.20;100.00
13661;BME280;6903;49.480;11.102;2023-04-21T07:29:47;97549.31;;;14.51;100.00
13661;BME280;6903;49.480;11.102;2023-04-21T07:32:12;97549.03;;;14.62;100.00
13661;BME280;6903;49.480;11.102;2023-04-21T07:34:37;97553.88;;;15.00;100.00
13661;BME280;6903;49.480;11.102;2023-04-21T07:37:03;97541.81;;;15.05;100.00
13661;BME280;6903;49.480;11.102;2023-04-21T07:39:28;97539.28;;;14.96;100.00
13661;BME280;6903;49.480;11.102;2023-04-21T07:41:53;97539.81;;;14.99;100.00
13661;BME280;6903;49.480;11.102;2023-04-21T07:44:19;97541.28;;;15.02;100.00
13661;BME280;6903;49.480;11.102;2023-04-21T07:46:45;97539.88;;;15.15;100.00
13661;BME280;6903;49.480;11.102;2023-04-21T07:49:10;97536.59;;;15.29;100.00
13661;BME280;6903;49.480;11.102;2023-04-21T07:51:35;97546.56;;;15.35;100.00
13661;BME280;6903;49.480;11.102;2023-04-21T07:54:01;97536.38;;;15.65;100.00
13661;BME280;6903;49.480;11.102;2023-04-21T07:56:26;97541.75;;;15.97;100.00
13661;BME280;6903;49.480;11.102;2023-04-21T07:58:51;97542.34;;;15.50;100.00
13661;BME280;6903;49.480;11.102;2023-04-21T08:01:17;97533.72;;;15.65;100.00
13661;BME280;6903;49.480;11.102;2023-04-21T08:03:42;97540.94;;;16.20;100.00
13661;BME280;6903;49.480;11.102;2023-04-21T08:06:07;97535.91;;;16.33;100.00
13661;BME280;6903;49.480;11.102;2023-04-21T08:08:33;97536.25;;;16.30;100.00
13661;BME280;6903;49.480;11.102;2023-04-21T08:10:58;97533.13;;;16.11;100.00
13661;BME280;6903;49.480;11.102;2023-04-21T08:13:23;97540.94;;;16.20;100.00
13661;BME280;6903;49.480;11.102;2023-04-21T08:15:52;97538.63;;;16.49;100.00
13661;BME280;6903;49.480;11.102;2023-04-21T08:18:18;97537.41;;;16.68;100.00
13661;BME280;6903;49.480;11.102;2023-04-21T08:20:44;97527.66;;;17.07;100.00
13661;BME280;6903;49.480;11.102;2023-04-21T08:23:10;97526.47;;;17.48;92.58
13661;BME280;6903;49.480;11.102;2023-04-21T08:25:36;97521.63;;;17.52;90.99
13661;BME280;6903;49.480;11.102;2023-04-21T08:28:01;97525.13;;;17.52;87.87
13661;BME280;6903;49.480;11.102;2023-04-21T08:30:27;97519.81;;;17.44;88.98
13661;BME280;6903;49.480;11.102;2023-04-21T08:32:52;97527.88;;;17.28;87.42
13661;BME280;6903;49.480;11.102;2023-04-21T08:35:17;97531.38;;;17.29;88.58
13661;BME280;6903;49.480;11.102;2023-04-21T08:37:43;97525.31;;;17.51;86.87
13661;BME280;6903;49.480;11.102;2023-04-21T08:40:10;97519.31;;;17.49;85.05
13661;BME280;6903;49.480;11.102;2023-04-21T08:42:36;97529.94;;;17.57;87.05
13661;BME280;6903;49.480;11.102;2023-04-21T08:45:02;97523.31;;;17.37;85.82
13661;BME280;6903;49.480;11.102;2023-04-21T08:47:28;97522.34;;;17.38;86.76
13661;BME280;6903;49.480;11.102;2023-04-21T08:49:55;97525.47;;;17.49;84.20
13661;BME280;6903;49.480;11.102;2023-04-21T08:52:20;97519.41;;;17.86;83.96
13661;BME280;6903;49.480;11.102;2023-04-21T08:54:46;97524.50;;;18.18;80.20
13661;BME280;6903;49.480;11.102;2023-04-21T08:57:15;97518.06;;;18.50;78.76
13661;BME280;6903;49.480;11.102;2023-04-21T08:59:41;97521.97;;;18.62;75.85
13661;BME280;6903;49.480;11.102;2023-04-21T09:04:39;97512.78;;;18.42;75.26
13661;BME280;6903;49.480;11.102;2023-04-21T09:07:05;97520.38;;;18.30;74.43
13661;BME280;6903;49.480;11.102;2023-04-21T09:09:32;97509.69;;;18.30;75.43
13661;BME280;6903;49.480;11.102;2023-04-21T09:11:58;97513.50;;;18.35;75.36
13661;BME280;6903;49.480;11.102;2023-04-21T09:14:31;97517.81;;;18.74;74.05
13661;BME280;6903;49.480;11.102;2023-04-21T09:17:01;97520.41;;;18.82;72.93
13661;BME280;6903;49.480;11.102;2023-04-21T09:19:28;97507.78;;;18.61;72.51
13661;BME280;6903;49.480;11.102;2023-04-21T09:21:54;97506.22;;;18.67;69.59
13661;BME280;6903;49.480;11.102;2023-04-21T09:24:19;97502.97;;;18.42;69.55
13661;BME280;6903;49.480;11.102;2023-04-21T09:26:51;97513.94;;;18.62;68.72
13661;BME280;6903;49.480;11.102;2023-04-21T09:29:17;97508.34;;;18.71;69.07
13661;BME280;6903;49.480;11.102;2023-04-21T09:31:43;97508.13;;;18.58;67.88
13661;BME280;6903;49.480;11.102;2023-04-21T09:34:19;97509.25;;;18.78;65.88
13661;BME280;6903;49.480;11.102;2023-04-21T09:36:45;97500.06;;;18.81;65.75
13661;BME280;6903;49.480;11.102;2023-04-21T09:39:12;97498.84;;;18.98;65.44
13661;BME280;6903;49.480;11.102;2023-04-21T09:41:37;97500.56;;;19.49;66.73
13661;BME280;6903;49.480;11.102;2023-04-21T09:44:02;97503.88;;;19.36;64.27
13661;BME280;6903;49.480;11.102;2023-04-21T09:46:31;97497.81;;;19.28;65.40
13661;BME280;6903;49.480;11.102;2023-04-21T09:48:59;97496.47;;;19.53;64.44
13661;BME280;6903;49.480;11.102;2023-04-21T09:51:25;97493.78;;;20.10;64.26
13661;BME280;6903;49.480;11.102;2023-04-21T09:53:53;97501.81;;;20.10;62.69
13661;BME280;6903;49.480;11.102;2023-04-21T09:56:23;97499.47;;;20.21;61.47
13661;BME280;6903;49.480;11.102;2023-04-21T09:58:53;97506.66;;;20.00;61.95
13661;BME280;6903;49.480;11.102;2023-04-21T10:01:19;97501.84;;;19.24;63.30
13661;BME280;6903;49.480;11.102;2023-04-21T10:03:47;97489.91;;;19.34;64.43
13661;BME280;6903;49.480;11.102;2023-04-21T10:06:13;97493.81;;;19.53;63.59
13661;BME280;6903;49.480;11.102;2023-04-21T10:08:38;97489.06;;;19.34;63.91
13661;BME280;6903;49.480;11.102;2023-04-21T10:11:04;97496.97;;;19.78;63.59
13661;BME280;6903;49.480;11.102;2023-04-21T10:13:31;97486.78;;;19.88;61.76
13661;BME280;6903;49.480;11.102;2023-04-21T10:16:01;97475.94;;;19.75;61.92
13661;BME280;6903;49.480;11.102;2023-04-21T10:18:28;97474.75;;;20.19;61.37
13661;BME280;6903;49.480;11.102;2023-04-21T10:21:16;97471.88;;;20.21;59.06
13661;BME280;6903;49.480;11.102;2023-04-21T10:23:45;97471.13;;;20.12;57.85
13661;BME280;6903;49.480;11.102;2023-04-21T10:26:31;97472.75;;;20.07;58.58
13661;BME280;6903;49.480;11.102;2023-04-21T10:29:02;97474.16;;;20.51;56.78
13661;BME280;6903;49.480;11.102;2023-04-21T10:31:35;97462.84;;;20.28;56.26
13661;BME280;6903;49.480;11.102;2023-04-21T10:36:29;97461.47;;;20.60;57.28
13661;BME280;6903;49.480;11.102;2023-04-21T10:38:55;97464.25;;;20.45;57.01
13661;BME280;6903;49.480;11.102;2023-04-21T10:41:31;97457.69;;;20.54;56.30
13661;BME280;6903;49.480;11.102;2023-04-21T10:43:57;97460.88;;;20.64;56.25
13661;BME280;6903;49.480;11.102;2023-04-21T10:46:46;97448.97;;;20.46;55.55
13661;BME280;6903;49.480;11.102;2023-04-21T10:49:32;97446.41;;;20.31;55.12
13661;BME280;6903;49.480;11.102;2023-04-21T10:52:03;97458.28;;;20.22;55.71
13661;BME280;6903;49.480;11.102;2023-04-21T10:54:36;97455.84;;;20.55;55.71
13661;BME280;6903;49.480;11.102;2023-04-21T10:57:05;97441.00;;;20.52;54.20
13661;BME280;6903;49.480;11.102;2023-04-21T10:59:33;97441.72;;;20.40;55.31
13661;BME280;6903;49.480;11.102;2023-04-21T11:01:59;97437.09;;;20.55;55.33
13661;BME280;6903;49.480;11.102;2023-04-21T11:04:24;97438.84;;;21.03;54.56
13661;BME280;6903;49.480;11.102;2023-04-21T11:07:12;97438.38;;;21.40;52.67
13661;BME280;6903;49.480;11.102;2023-04-21T11:09:39;97439.38;;;21.33;50.93
13661;BME280;6903;49.480;11.102;2023-04-21T11:12:06;97433.41;;;20.56;52.06
13661;BME280;6903;49.480;11.102;2023-04-21T11:14:33;97432.06;;;20.39;52.82
13661;BME280;6903;49.480;11.102;2023-04-21T11:16:59;97436.22;;;20.20;53.94
13661;BME280;6903;49.480;11.102;2023-04-21T11:19:25;97424.72;;;20.20;53.24
13661;BME280;6903;49.480;11.102;2023-04-21T11:21:52;97432.00;;;20.32;52.90
13661;BME280;6903;49.480;11.102;2023-04-21T11:24:20;97410.16;;;20.29;53.71
13661;BME280;6903;49.480;11.102;2023-04-21T11:26:46;97419.47;;;20.39;52.57
13661;BME280;6903;49.480;11.102;2023-04-21T11:29:11;97415.50;;;20.29;52.40
13661;BME280;6903;49.480;11.102;2023-04-21T11:31:43;97413.94;;;20.41;52.66
13661;BME280;6903;49.480;11.102;2023-04-21T11:34:09;97433.78;;;20.25;52.41
13661;BME280;6903;49.480;11.102;2023-04-21T11:36:37;97414.19;;;20.18;52.83
13661;BME280;6903;49.480;11.102;2023-04-21T11:39:04;97421.00;;;20.21;51.56
13661;BME280;6903;49.480;11.102;2023-04-21T11:41:32;97410.19;;;20.35;50.96
13661;BME280;6903;49.480;11.102;2023-04-21T11:43:57;97404.78;;;20.29;50.87
13661;BME280;6903;49.480;11.102;2023-04-21T11:46:25;97423.34;;;20.30;51.82
13661;BME280;6903;49.480;11.102;2023-04-21T11:49:07;97400.31;;;20.36;51.83
13661;BME280;6903;49.480;11.102;2023-04-21T11:51:39;97399.88;;;20.32;51.30
13661;BME280;6903;49.480;11.102;2023-04-21T11:54:06;97386.44;;;20.26;51.47
13661;BME280;6903;49.480;11.102;2023-04-21T11:56:35;97386.84;;;20.23;50.35
13661;BME280;6903;49.480;11.102;2023-04-21T11:59:07;97386.88;;;20.29;51.13
13661;BME280;6903;49.480;11.102;2023-04-21T12:01:33;97394.91;;;20.29;51.22
13661;BME280;6903;49.480;11.102;2023-04-21T12:03:58;97384.81;;;20.31;51.60
13661;BME280;6903;49.480;11.102;2023-04-21T12:06:25;97386.53;;;20.73;51.26
13661;BME280;6903;49.480;11.102;2023-04-21T12:08:55;97387.56;;;20.78;51.20
13661;BME280;6903;49.480;11.102;2023-04-21T12:11:22;97382.19;;;20.78;50.65
13661;BME280;6903;49.480;11.102;2023-04-21T12:13:48;97392.66;;;20.67;51.10
13661;BME280;6903;49.480;11.102;2023-04-21T12:16:14;97383.53;;;20.55;51.12
13661;BME280;6903;49.480;11.102;2023-04-21T12:18:39;97378.88;;;20.76;50.71
13661;BME280;6903;49.480;11.102;2023-04-21T12:21:06;97383.78;;;20.60;50.32
13661;BME280;6903;49.480;11.102;2023-04-21T12:23:31;97388.88;;;20.55;51.01
13661;BME280;6903;49.480;11.102;2023-04-21T12:25:57;97377.88;;;20.77;50.36
13661;BME280;6903;49.480;11.102;2023-04-21T12:28:22;97376.69;;;20.93;49.30
13661;BME280;6903;49.480;11.102;2023-04-21T12:30:47;97376.50;;;20.94;48.64
13661;BME280;6903;49.480;11.102;2023-04-21T12:33:13;97378.22;;;21.08;47.03
13661;BME280;6903;49.480;11.102;2023-04-21T12:35:38;97365.84;;;21.08;46.11
13661;BME280;6903;49.480;11.102;2023-04-21T12:38:03;97379.31;;;21.27;46.18
13661;BME280;6903;49.480;11.102;2023-04-21T12:40:29;97367.38;;;21.49;46.86
13661;BME280;6903;49.480;11.102;2023-04-21T12:42:54;97365.78;;;21.68;47.27
13661;BME280;6903;49.480;11.102;2023-04-21T12:45:19;97379.78;;;21.70;46.89
13661;BME280;6903;49.480;11.102;2023-04-21T12:47:45;97356.25;;;21.59;46.71
13661;BME280;6903;49.480;11.102;2023-04-21T12:50:10;97370.69;;;21.51;47.45
13661;BME280;6903;49.480;11.102;2023-04-21T12:52:36;97357.47;;;21.37;46.66
13661;BME280;6903;49.480;11.102;2023-04-21T12:55:01;97361.59;;;21.33;46.78
13661;BME280;6903;49.480;11.102;2023-04-21T12:57:27;97357.91;;;21.40;46.46